Time;durP1;ratioP1;P1;durP2;ratioP2;P2;SDS_P1;SDS_P2;PMS_P1;PMS_P2;Temp;Humidity;BMP_temperature;BMP_pressure;BME280_temperature;BME280_humidity;BME280_pressure;Samples;Min_cycle;Max_cycle;Signal;HPM_P1;HPM_P2
2022/01/23 00:00:27;;;;;;;5.63;1.60;;;23.90;70.10;;;;;;5049854;28;20655;-77
2022/01/23 00:02:59;;;;;;;3.23;1.43;;;23.90;69.80;;;;;;5030569;28;20209;-78
2022/01/23 00:05:37;;;;;;;4.07;1.90;;;23.80;69.10;;;;;;5051513;28;20331;-79
2022/01/23 00:08:06;;;;;;;4.13;1.10;;;23.80;69.90;;;;;;5034857;28;20259;-73
2022/01/23 00:10:34;;;;;;;3.37;0.93;;;23.90;69.70;;;;;;5035188;28;20543;-73
2022/01/23 00:13:12;;;;;;;2.00;0.87;;;23.90;69.40;;;;;;5034160;28;20177;-84
2022/01/23 00:18:25;;;;;;;3.43;0.90;;;23.90;69.70;;;;;;5035431;28;20200;-77
2022/01/23 00:20:52;;;;;;;3.93;1.20;;;23.90;69.60;;;;;;5037869;28;20255;-80
2022/01/23 00:31:45;;;;;;;4.00;0.80;;;23.70;70.10;;;;;;5035635;28;20208;-81
2022/01/23 00:34:13;;;;;;;4.83;0.73;;;23.60;71.20;;;;;;5034737;28;20202;-80
2022/01/23 00:36:40;;;;;;;4.70;1.20;;;23.50;70.70;;;;;;5037584;28;20591;-84
2022/01/23 00:39:07;;;;;;;4.83;1.27;;;23.50;71.10;;;;;;5037983;28;20239;-74
2022/01/23 00:41:35;;;;;;;3.93;1.43;;;23.50;70.40;;;;;;5040125;28;20208;-82
2022/01/23 00:44:03;;;;;;;2.20;1.33;;;23.50;69.50;;;;;;5034164;28;20185;-83
2022/01/23 00:46:35;;;;;;;2.57;1.07;;;23.70;69.10;;;;;;5038004;28;20315;-80
2022/01/23 00:51:39;;;;;;;4.47;0.87;;;24.10;66.00;;;;;;5033328;28;20184;-83
2022/01/23 00:54:11;;;;;;;3.60;1.00;;;24.00;66.70;;;;;;5032407;28;20210;-82
2022/01/23 00:56:39;;;;;;;2.43;0.63;;;24.20;66.70;;;;;;5031498;28;20199;-78
2022/01/23 00:59:07;;;;;;;5.80;1.00;;;24.20;65.70;;;;;;5048619;28;20184;-80
2022/01/23 01:01:34;;;;;;;2.90;1.40;;;24.30;65.40;;;;;;5032991;28;20659;-73
2022/01/23 01:04:02;;;;;;;2.30;1.03;;;24.30;64.70;;;;;;5031290;28;20184;-75
2022/01/23 01:06:31;;;;;;;2.70;1.00;;;24.10;64.50;;;;;;5033071;28;20172;-77
2022/01/23 01:09:05;;;;;;;2.97;0.80;;;24.30;64.00;;;;;;5047496;28;20241;-81
2022/01/23 01:14:28;;;;;;;1.57;0.87;;;24.60;64.70;;;;;;5030584;28;20180;-81
2022/01/23 01:31:05;;;;;;;4.93;0.93;;;24.30;68.00;;;;;;5031160;28;20218;-78
2022/01/23 01:39:10;;;;;;;2.80;0.70;;;24.00;73.60;;;;;;5009401;28;20311;-79
2022/01/23 01:41:39;;;;;;;3.70;0.97;;;23.70;73.80;;;;;;5010205;28;20217;-80
2022/01/23 01:44:09;;;;;;;2.80;1.27;;;23.90;75.20;;;;;;5022512;28;20212;-77
2022/01/23 01:46:37;;;;;;;3.43;1.03;;;23.60;76.60;;;;;;5032697;28;20207;-79
2022/01/23 01:49:05;;;;;;;3.37;0.83;;;23.60;78.60;;;;;;5031075;28;20188;-84
2022/01/23 01:51:33;;;;;;;3.60;1.97;;;23.50;77.40;;;;;;5036340;28;20204;-79
2022/01/23 01:54:11;;;;;;;1.90;1.23;;;23.50;80.10;;;;;;5030531;28;20268;-80
2022/01/23 01:56:49;;;;;;;2.73;1.13;;;23.70;77.60;;;;;;5037712;28;20592;-78
2022/01/23 02:10:08;;;;;;;9.40;8.43;;;24.50;70.40;;;;;;5031486;28;20184;-80
2022/01/23 02:13:01;;;;;;;2.00;0.90;;;24.60;69.50;;;;;;5034748;28;20196;-81
2022/01/23 02:15:44;;;;;;;3.33;0.60;;;24.60;68.80;;;;;;5040021;28;20189;-79
2022/01/23 02:51:50;;;;;;;3.13;1.00;;;25.80;60.10;;;;;;5038071;28;20184;-78
2022/01/23 02:56:39;;;;;;;2.50;0.60;;;25.50;59.40;;;;;;5040512;28;20216;-79
2022/01/23 02:59:20;;;;;;;2.00;0.67;;;25.40;59.80;;;;;;5041216;28;20196;-83
2022/01/23 03:02:10;;;;;;;0.80;0.50;;;25.50;59.10;;;;;;5038046;28;20259;-83
2022/01/23 03:04:47;;;;;;;0.93;0.70;;;25.80;59.00;;;;;;5036883;28;20226;-85
2022/01/23 03:07:31;;;;;;;0.53;0.50;;;25.90;59.10;;;;;;5040825;28;20279;-77
2022/01/23 03:10:10;;;;;;;3.63;1.43;;;26.80;57.70;;;;;;5034682;28;20188;-82
2022/01/23 03:27:01;;;;;;;2.03;0.67;;;25.60;61.30;;;;;;5034104;28;20184;-82
2022/01/23 03:29:22;;;;;;;0.90;0.50;;;25.50;62.50;;;;;;5028858;28;20628;-79
2022/01/23 03:34:24;;;;;;;11.90;10.30;;;24.80;64.90;;;;;;5032563;28;20188;-79
2022/01/23 03:36:52;;;;;;;4.00;1.13;;;24.80;65.20;;;;;;5033776;28;20217;-82
2022/01/23 03:39:20;;;;;;;5.70;5.20;;;24.60;65.00;;;;;;5033179;28;20294;-78
2022/01/23 03:41:47;;;;;;;3.40;0.93;;;24.50;65.10;;;;;;5033878;28;20278;-80
2022/01/23 03:44:17;;;;;;;1.67;0.60;;;24.30;65.90;;;;;;5035491;28;20635;-82
2022/01/23 03:47:12;;;;;;;1.53;0.60;;;24.50;66.40;;;;;;5035123;28;20514;-79
2022/01/23 03:49:41;;;;;;;1.73;0.70;;;24.60;65.00;;;;;;5033786;28;20268;-80
2022/01/23 03:52:12;;;;;;;1.17;0.90;;;24.30;66.70;;;;;;5050178;28;20227;-73
2022/01/23 03:54:40;;;;;;;3.60;2.43;;;24.10;69.60;;;;;;5037696;28;20177;-76
2022/01/23 03:57:10;;;;;;;4.10;2.63;;;23.90;69.10;;;;;;5041505;28;20207;-77
2022/01/23 03:59:38;;;;;;;1.83;0.80;;;24.20;66.20;;;;;;5045803;28;20181;-77
2022/01/23 04:02:06;;;;;;;2.07;0.80;;;24.60;64.50;;;;;;5033457;28;20706;-75
2022/01/23 04:04:41;;;;;;;2.50;0.53;;;24.60;63.10;;;;;;5034416;28;20177;-74
2022/01/23 04:07:19;;;;;;;2.97;0.70;;;24.70;62.80;;;;;;5033453;28;20180;-76
2022/01/23 04:09:47;;;;;;;1.90;0.70;;;24.80;63.30;;;;;;5035092;28;20196;-73
2022/01/23 04:31:54;;;;;;;3.93;0.70;;;27.50;56.80;;;;;;5030565;28;20179;-78
2022/01/23 04:34:35;;;;;;;3.27;0.63;;;28.70;52.90;;;;;;5031935;28;20286;-75
2022/01/23 04:45:32;;;;;;;1.33;0.50;;;28.60;51.00;;;;;;5033753;28;20238;-76
2022/01/23 05:04:33;;;;;;;1.00;0.65;;;29.70;46.40;;;;;;5034290;28;20219;-78
2022/01/23 05:07:07;;;;;;;1.33;0.50;;;28.90;48.60;;;;;;5033915;28;20272;-81
2022/01/23 05:09:35;;;;;;;1.35;0.30;;;29.60;47.50;;;;;;5030573;28;20197;-82
2022/01/23 05:12:06;;;;;;;1.67;0.50;;;30.10;47.00;;;;;;5033578;28;20594;-78
2022/01/23 05:14:38;;;;;;;7.20;0.60;;;29.90;47.90;;;;;;5035212;28;20180;-81
2022/01/23 05:17:10;;;;;;;0.57;0.40;;;30.60;47.20;;;;;;5034214;28;20268;-83
2022/01/23 05:19:39;;;;;;;0.40;0.30;;;30.30;47.00;;;;;;5034681;28;20183;-76
2022/01/23 05:24:42;;;;;;;2.35;0.45;;;30.10;45.20;;;;;;5034560;28;20519;-84
2022/01/23 05:27:10;;;;;;;0.60;0.40;;;30.40;44.10;;;;;;5032368;28;20260;-79
2022/01/23 05:29:38;;;;;;;0.40;0.40;;;31.00;42.30;;;;;;5032232;28;20161;-81
2022/01/23 05:32:12;;;;;;;1.65;0.30;;;30.90;41.80;;;;;;5040668;28;20208;-80
2022/01/23 05:34:49;;;;;;;0.68;0.40;;;30.80;42.40;;;;;;5042549;28;20195;-78
2022/01/23 05:37:17;;;;;;;1.70;0.68;;;30.70;41.90;;;;;;5036951;28;20191;-78
2022/01/23 05:39:44;;;;;;;2.28;0.60;;;31.10;42.40;;;;;;5044947;28;20224;-74
2022/01/23 05:42:12;;;;;;;1.30;0.50;;;31.30;42.20;;;;;;5045362;28;20240;-76
2022/01/23 05:44:42;;;;;;;1.40;0.50;;;31.40;41.80;;;;;;5046402;28;20177;-78
2022/01/23 05:47:12;;;;;;;1.58;0.50;;;31.40;42.40;;;;;;5044959;28;20698;-82
2022/01/23 05:49:40;;;;;;;0.85;0.50;;;31.30;42.40;;;;;;5040879;28;20177;-75
2022/01/23 05:52:08;;;;;;;2.15;0.60;;;31.30;43.80;;;;;;5034870;28;20666;-76
2022/01/23 05:54:36;;;;;;;1.38;0.40;;;31.10;44.40;;;;;;5029068;28;20529;-80
2022/01/23 05:57:04;;;;;;;1.30;0.50;;;31.70;41.70;;;;;;5031399;28;20242;-77
2022/01/23 05:59:31;;;;;;;1.88;0.40;;;31.90;41.90;;;;;;5032783;28;20207;-77
2022/01/23 06:01:59;;;;;;;1.35;0.40;;;31.20;44.20;;;;;;5031429;28;20563;-78
2022/01/23 06:04:27;;;;;;;1.77;0.50;;;29.90;45.90;;;;;;5031511;28;20234;-77
2022/01/23 06:06:59;;;;;;;1.98;0.50;;;28.90;49.00;;;;;;5032857;28;20184;-78
2022/01/23 06:09:28;;;;;;;0.82;0.50;;;28.50;50.60;;;;;;5031209;28;20189;-75
2022/01/23 06:11:56;;;;;;;1.30;0.50;;;28.90;50.30;;;;;;5032167;28;20188;-78
2022/01/23 06:14:26;;;;;;;1.23;0.52;;;29.00;50.20;;;;;;5032348;28;20189;-75
2022/01/23 06:16:53;;;;;;;2.85;0.68;;;29.30;49.70;;;;;;5032190;28;20181;-84
2022/01/23 06:19:21;;;;;;;1.70;0.60;;;29.60;49.20;;;;;;5031960;28;20210;-73
2022/01/23 06:21:52;;;;;;;1.15;0.50;;;30.40;46.90;;;;;;5032249;28;20250;-76
2022/01/23 06:24:27;;;;;;;2.80;0.55;;;30.80;45.10;;;;;;5031496;28;20194;-80
2022/01/23 06:27:05;;;;;;;3.53;0.50;;;30.80;45.60;;;;;;5032906;28;20274;-82
2022/01/23 06:29:33;;;;;;;0.93;0.40;;;30.80;46.70;;;;;;5028153;28;20181;-80
2022/01/23 06:32:02;;;;;;;0.65;0.45;;;30.60;46.20;;;;;;5031232;28;20271;-73
2022/01/23 06:34:31;;;;;;;2.17;0.57;;;29.40;49.60;;;;;;5027689;28;20238;-74
2022/01/23 06:36:58;;;;;;;1.52;0.60;;;28.50;52.00;;;;;;5032587;28;20181;-74
2022/01/23 06:39:27;;;;;;;2.53;0.80;;;29.20;50.30;;;;;;5031880;28;20216;-78
2022/01/23 06:41:55;;;;;;;1.95;0.50;;;29.50;49.40;;;;;;5031970;28;20204;-77
2022/01/23 06:44:23;;;;;;;1.30;0.57;;;29.30;49.40;;;;;;5031932;28;20287;-82
2022/01/23 06:46:51;;;;;;;1.42;0.60;;;28.50;51.40;;;;;;5031851;28;20551;-79
2022/01/23 06:49:18;;;;;;;1.30;0.60;;;28.60;50.20;;;;;;5031864;28;20754;-80
2022/01/23 06:51:47;;;;;;;3.23;0.70;;;28.50;50.30;;;;;;5029682;28;20194;-85
2022/01/23 06:54:14;;;;;;;1.73;0.50;;;28.90;49.60;;;;;;5033061;28;20188;-83
2022/01/23 06:56:42;;;;;;;2.47;0.60;;;29.30;48.40;;;;;;5031206;28;20624;-79
2022/01/23 06:59:09;;;;;;;1.97;0.60;;;28.90;49.70;;;;;;5030768;28;20275;-78
2022/01/23 07:01:37;;;;;;;1.13;0.40;;;28.80;49.50;;;;;;5033849;28;20180;-76
2022/01/23 07:04:04;;;;;;;0.60;0.40;;;27.70;52.70;;;;;;5048204;28;20180;-78
2022/01/23 07:06:35;;;;;;;3.33;0.70;;;26.90;54.50;;;;;;5039721;28;20188;-80
2022/01/23 07:09:03;;;;;;;0.40;0.40;;;26.50;56.70;;;;;;5034888;28;20179;-77
2022/01/23 07:11:30;;;;;;;6.17;4.50;;;26.20;57.80;;;;;;5032405;28;20242;-80
2022/01/23 07:14:00;;;;;;;10.43;8.57;;;25.70;60.00;;;;;;5033787;28;20596;-78
2022/01/23 07:16:28;;;;;;;1.80;1.00;;;25.30;61.40;;;;;;5035614;28;20639;-81
2022/01/23 07:18:56;;;;;;;2.73;0.90;;;25.30;61.70;;;;;;5035222;28;20173;-73
2022/01/23 07:21:23;;;;;;;2.03;0.60;;;25.20;62.00;;;;;;5032232;28;20199;-76
2022/01/23 07:23:52;;;;;;;0.87;0.80;;;25.00;62.50;;;;;;5035388;28;20208;-74
2022/01/23 07:26:21;;;;;;;1.13;0.67;;;24.80;63.90;;;;;;5050492;28;20242;-78
2022/01/23 07:28:51;;;;;;;2.30;0.87;;;24.50;64.90;;;;;;5033092;28;20649;-77
2022/01/23 07:34:06;;;;;;;1.87;0.70;;;24.50;65.50;;;;;;5035055;28;20184;-77
2022/01/23 07:36:37;;;;;;;2.90;0.73;;;24.50;65.90;;;;;;5035562;28;20176;-87
2022/01/23 07:39:05;;;;;;;2.93;0.83;;;24.40;65.80;;;;;;5029881;28;20659;-82
2022/01/23 07:41:33;;;;;;;4.33;0.90;;;24.30;66.20;;;;;;5035704;28;20181;-82
2022/01/23 07:44:01;;;;;;;3.33;0.60;;;24.20;67.10;;;;;;5034717;28;20223;-77
2022/01/23 07:46:28;;;;;;;5.03;1.17;;;24.20;66.60;;;;;;5031587;28;20255;-77
2022/01/23 07:48:56;;;;;;;1.87;0.97;;;24.10;66.80;;;;;;5032543;28;20192;-72
2022/01/23 07:51:23;;;;;;;2.73;0.83;;;24.10;66.20;;;;;;5033446;28;20263;-81
2022/01/23 07:53:51;;;;;;;3.33;1.37;;;24.00;65.70;;;;;;5035774;28;20657;-76
2022/01/23 07:56:18;;;;;;;4.80;1.83;;;23.90;65.10;;;;;;5038800;28;20188;-80
2022/01/23 07:58:46;;;;;;;2.47;1.40;;;23.80;65.80;;;;;;5036663;28;20180;-74
2022/01/23 08:01:13;;;;;;;1.33;0.80;;;23.80;66.60;;;;;;5035502;28;20195;-80
2022/01/23 08:03:40;;;;;;;1.90;0.90;;;23.80;67.10;;;;;;5035037;28;20220;-84
2022/01/23 08:06:11;;;;;;;3.13;0.90;;;23.70;67.00;;;;;;5034062;28;20165;-83
2022/01/23 08:08:38;;;;;;;3.50;1.07;;;23.80;66.70;;;;;;5031036;28;20535;-83
2022/01/23 08:11:07;;;;;;;2.60;1.00;;;23.80;66.90;;;;;;5034758;28;20199;-83
2022/01/23 08:13:35;;;;;;;4.63;1.73;;;23.80;66.80;;;;;;5035192;28;20172;-82
2022/01/23 08:16:02;;;;;;;10.23;5.03;;;23.90;66.70;;;;;;5033915;28;20531;-83
2022/01/23 08:18:30;;;;;;;4.60;1.47;;;23.80;67.70;;;;;;5033687;28;20260;-84
2022/01/23 08:20:57;;;;;;;4.63;0.90;;;23.80;68.40;;;;;;5033207;28;20191;-81
2022/01/23 08:23:24;;;;;;;2.40;0.97;;;23.50;70.50;;;;;;5033819;28;20219;-80
2022/01/23 08:25:53;;;;;;;2.10;0.80;;;23.40;70.90;;;;;;5033406;28;20183;-76
2022/01/23 08:28:20;;;;;;;1.67;0.97;;;23.40;71.70;;;;;;5033983;28;20197;-79
2022/01/23 08:30:47;;;;;;;3.40;0.80;;;23.00;74.10;;;;;;5032338;28;20172;-76
2022/01/23 08:33:15;;;;;;;4.00;0.80;;;22.80;77.70;;;;;;5032225;28;20574;-80
2022/01/23 08:35:45;;;;;;;2.77;0.80;;;22.40;80.10;;;;;;5036370;28;20207;-79
2022/01/23 08:38:16;;;;;;;2.10;0.90;;;22.30;82.10;;;;;;5036617;28;20184;-78
2022/01/23 08:43:17;;;;;;;7.50;1.10;;;21.90;82.10;;;;;;5042824;28;20212;-77
2022/01/23 08:45:45;;;;;;;3.03;0.90;;;21.80;82.80;;;;;;5034398;28;20211;-78
2022/01/23 08:48:13;;;;;;;6.17;1.10;;;21.70;82.80;;;;;;5033113;28;20658;-76
2022/01/23 08:50:40;;;;;;;2.03;0.90;;;21.70;82.40;;;;;;5034452;28;20184;-82
2022/01/23 08:53:08;;;;;;;2.07;0.80;;;21.80;81.40;;;;;;5033271;28;20230;-78
2022/01/23 08:55:35;;;;;;;3.67;1.20;;;21.80;81.00;;;;;;5033788;28;20173;-75
2022/01/23 08:58:03;;;;;;;3.97;1.00;;;21.80;80.70;;;;;;5032302;28;20188;-81
2022/01/23 09:00:31;;;;;;;5.23;1.00;;;21.80;80.00;;;;;;5030182;28;20180;-79
2022/01/23 09:02:59;;;;;;;3.77;0.80;;;21.70;79.90;;;;;;5031872;28;20223;-77
2022/01/23 09:05:27;;;;;;;3.50;0.87;;;21.80;79.80;;;;;;5032520;28;20180;-78
2022/01/23 09:07:55;;;;;;;1.37;0.77;;;21.70;79.30;;;;;;5029466;28;20185;-77
2022/01/23 09:10:28;;;;;;;2.03;0.93;;;21.70;78.90;;;;;;5032406;28;20217;-79
2022/01/23 09:15:30;;;;;;;1.13;0.77;;;21.60;78.90;;;;;;5031940;28;20654;-75
2022/01/23 09:17:57;;;;;;;2.13;0.93;;;21.70;78.70;;;;;;5032178;28;20509;-81
2022/01/23 09:20:25;;;;;;;4.20;1.47;;;21.70;78.60;;;;;;5032930;28;20177;-76
2022/01/23 09:22:52;;;;;;;4.43;2.57;;;21.70;79.00;;;;;;5035479;28;20212;-81
2022/01/23 09:25:20;;;;;;;3.00;1.10;;;21.80;78.80;;;;;;5041043;28;20172;-79
2022/01/23 09:27:48;;;;;;;2.90;1.13;;;21.70;78.20;;;;;;5038587;28;20243;-79
2022/01/23 09:30:20;;;;;;;2.13;0.70;;;21.80;77.10;;;;;;5031884;28;20180;-78
2022/01/23 09:32:48;;;;;;;1.00;0.67;;;21.60;75.70;;;;;;5035268;28;20741;-79
2022/01/23 09:35:17;;;;;;;2.70;0.70;;;21.60;75.50;;;;;;5048106;28;20207;-79
2022/01/23 09:37:45;;;;;;;2.23;0.77;;;21.60;75.20;;;;;;5033212;28;20204;-75
2022/01/23 09:40:14;;;;;;;1.27;0.63;;;21.50;74.70;;;;;;5029402;28;20224;-78
2022/01/23 09:42:50;;;;;;;4.87;0.90;;;21.50;75.00;;;;;;5035208;28;20208;-78
2022/01/23 09:45:18;;;;;;;3.63;1.10;;;21.50;74.90;;;;;;5031526;28;20243;-79
2022/01/23 09:47:46;;;;;;;0.97;0.60;;;21.60;74.50;;;;;;5032216;28;20686;-75
2022/01/23 09:50:15;;;;;;;1.40;0.70;;;21.50;74.40;;;;;;5032631;28;20180;-78
2022/01/23 09:52:44;;;;;;;3.60;0.90;;;21.50;74.00;;;;;;5032678;28;20667;-80
2022/01/23 09:55:13;;;;;;;1.73;0.60;;;21.60;73.80;;;;;;5032425;28;20180;-76
2022/01/23 09:57:49;;;;;;;2.10;0.60;;;21.60;73.20;;;;;;5033324;28;20184;-81
2022/01/23 10:00:28;;;;;;;1.90;0.70;;;21.60;73.40;;;;;;5032414;28;20184;-80
2022/01/23 10:02:57;;;;;;;2.17;0.60;;;21.60;74.00;;;;;;5030709;28;20311;-75
2022/01/23 10:05:25;;;;;;;2.50;1.73;;;21.50;74.80;;;;;;5026750;28;20564;-78
2022/01/23 10:07:53;;;;;;;1.37;0.70;;;21.40;76.00;;;;;;5033526;28;20188;-76
2022/01/23 10:10:26;;;;;;;2.40;1.27;;;21.30;76.50;;;;;;5033980;28;20643;-76
2022/01/23 10:12:59;;;;;;;3.70;2.90;;;21.30;77.20;;;;;;5037079;28;20181;-75
2022/01/23 10:15:32;;;;;;;2.60;1.00;;;21.30;78.50;;;;;;5040632;28;20172;-77
2022/01/23 10:18:01;;;;;;;1.53;0.83;;;21.30;78.90;;;;;;5037986;28;20165;-80
2022/01/23 10:20:29;;;;;;;1.53;0.80;;;21.20;82.00;;;;;;5033389;28;20168;-77
2022/01/23 10:22:59;;;;;;;1.00;0.60;;;21.10;83.30;;;;;;5031949;28;20208;-78
2022/01/23 10:25:28;;;;;;;1.33;0.80;;;20.90;84.50;;;;;;5033073;28;20184;-76
2022/01/23 10:28:03;;;;;;;0.93;0.90;;;20.60;84.90;;;;;;5032861;28;20232;-83
2022/01/23 10:30:41;;;;;;;1.37;0.60;;;20.40;85.20;;;;;;5029336;28;20184;-82
2022/01/23 10:33:12;;;;;;;0.97;0.70;;;20.30;86.00;;;;;;5030853;28;20689;-79
2022/01/23 10:36:02;;;;;;;2.70;0.77;;;20.20;87.30;;;;;;5031153;28;20605;-81
2022/01/23 10:38:33;;;;;;;2.77;1.00;;;20.10;88.70;;;;;;5031178;28;20635;-85
2022/01/23 10:49:54;;;;;;;1.90;0.90;;;20.40;90.90;;;;;;5036371;28;20184;-82
2022/01/23 10:52:40;;;;;;;2.27;0.97;;;20.50;90.70;;;;;;5030410;28;20173;-85
2022/01/23 10:55:25;;;;;;;1.90;0.97;;;20.50;90.70;;;;;;5035666;28;20173;-82
2022/01/23 10:57:58;;;;;;;4.63;1.50;;;20.50;89.90;;;;;;5035450;28;20291;-79
2022/01/23 11:00:30;;;;;;;2.20;0.90;;;20.50;90.30;;;;;;5035992;28;20708;-80
2022/01/23 11:02:59;;;;;;;1.80;0.93;;;20.50;90.50;;;;;;5034965;28;20212;-77
2022/01/23 11:05:38;;;;;;;1.80;1.20;;;20.50;90.10;;;;;;5035770;28;20184;-76
2022/01/23 11:08:28;;;;;;;1.73;0.70;;;20.40;89.80;;;;;;5032207;28;20177;-77
2022/01/23 11:11:06;;;;;;;2.20;0.97;;;20.20;88.90;;;;;;5033707;28;20173;-74
2022/01/23 11:19:39;;;;;;;2.47;0.70;;;20.30;89.00;;;;;;5032706;28;20235;-78
2022/01/23 11:22:14;;;;;;;1.13;0.60;;;20.30;88.10;;;;;;5034938;28;20257;-77
2022/01/23 11:24:44;;;;;;;1.80;0.87;;;20.30;88.70;;;;;;5032762;28;20516;-77
2022/01/23 11:27:13;;;;;;;2.73;0.70;;;20.30;89.00;;;;;;5033240;28;20192;-81
2022/01/23 11:30:02;;;;;;;2.80;0.93;;;20.30;89.00;;;;;;5031445;28;20173;-78
2022/01/23 11:32:35;;;;;;;3.47;1.20;;;20.20;89.50;;;;;;5031320;28;20247;-76
2022/01/23 11:35:16;;;;;;;2.40;0.90;;;20.20;90.10;;;;;;5033981;28;20180;-76
2022/01/23 11:37:51;;;;;;;3.27;0.97;;;20.10;90.60;;;;;;5034465;28;20185;-76
2022/01/23 11:54:11;;;;;;;2.70;1.03;;;19.90;90.90;;;;;;5034114;28;20191;-75
2022/01/23 11:56:42;;;;;;;2.57;1.13;;;19.90;91.00;;;;;;5034311;28;20184;-74
2022/01/23 11:59:18;;;;;;;3.13;0.80;;;19.90;91.30;;;;;;5033091;28;20255;-73
2022/01/23 12:02:20;;;;;;;2.53;0.83;;;19.90;91.40;;;;;;5032046;28;20545;-74
2022/01/23 12:05:21;;;;;;;2.53;0.90;;;19.90;91.60;;;;;;5034134;28;20184;-74
2022/01/23 12:08:36;;;;;;;2.07;0.80;;;19.90;91.60;;;;;;5030727;28;20192;-74
2022/01/23 12:16:48;;;;;;;2.73;1.03;;;20.10;91.70;;;;;;5030500;28;20635;-75
2022/01/23 12:19:25;;;;;;;1.63;0.73;;;20.00;91.80;;;;;;5025642;28;20342;-74
2022/01/23 12:21:54;;;;;;;1.87;0.83;;;20.00;92.20;;;;;;5033716;28;20222;-74
2022/01/23 12:24:24;;;;;;;3.77;0.97;;;20.10;91.60;;;;;;5028133;28;20663;-74
2022/01/23 12:27:12;;;;;;;2.53;1.10;;;20.00;91.80;;;;;;5032220;28;20583;-74
2022/01/23 12:29:39;;;;;;;2.40;0.90;;;19.90;92.00;;;;;;5031038;28;20805;-74
2022/01/23 12:32:33;;;;;;;1.73;0.80;;;19.90;91.90;;;;;;5033896;28;20181;-74
2022/01/23 12:35:07;;;;;;;2.30;0.93;;;19.80;91.60;;;;;;5032892;28;20191;-74
2022/01/23 12:37:59;;;;;;;1.50;0.90;;;19.90;91.40;;;;;;5033496;28;20173;-74
2022/01/23 12:40:41;;;;;;;3.27;0.87;;;19.80;91.80;;;;;;5031655;28;20680;-74
2022/01/23 12:43:16;;;;;;;1.90;0.90;;;19.80;91.70;;;;;;5032166;28;20255;-73
2022/01/23 12:46:16;;;;;;;1.37;0.80;;;19.90;91.90;;;;;;5035633;28;20188;-77
2022/01/23 12:48:48;;;;;;;1.37;0.80;;;19.80;91.50;;;;;;5033313;28;20713;-74
2022/01/23 12:51:43;;;;;;;3.97;0.83;;;19.90;91.80;;;;;;5033615;28;20594;-75
2022/01/23 12:54:24;;;;;;;1.10;0.63;;;20.00;91.60;;;;;;5036098;28;20252;-74
2022/01/23 12:56:52;;;;;;;2.60;1.03;;;20.00;91.60;;;;;;5031321;28;20686;-74
2022/01/23 12:59:32;;;;;;;1.17;0.77;;;20.10;91.40;;;;;;5034738;28;20208;-76
2022/01/23 13:02:09;;;;;;;0.73;0.70;;;20.10;91.00;;;;;;5029936;28;20270;-75
2022/01/23 13:04:45;;;;;;;3.10;0.80;;;20.10;91.10;;;;;;5034809;28;20204;-75
2022/01/23 13:08:01;;;;;;;3.03;1.33;;;20.20;91.30;;;;;;5034150;28;20184;-75
2022/01/23 13:14:06;;;;;;;1.70;0.80;;;20.20;90.70;;;;;;5035010;28;20184;-74
2022/01/23 13:18:52;;;;;;;4.27;0.80;;;20.10;90.90;;;;;;5037949;28;20263;-74
2022/01/23 13:30:02;;;;;;;1.63;0.70;;;20.10;90.50;;;;;;5032341;28;21068;-74
2022/01/23 13:35:05;;;;;;;3.13;1.00;;;20.30;91.10;;;;;;5032807;28;20183;-74
2022/01/23 13:37:39;;;;;;;3.30;0.90;;;20.30;90.40;;;;;;5029792;28;20231;-75
2022/01/23 13:40:23;;;;;;;1.90;0.90;;;20.30;91.00;;;;;;5032616;28;20232;-75
2022/01/23 13:57:37;;;;;;;1.43;0.90;;;20.10;91.50;;;;;;5031194;28;20526;-74
2022/01/23 14:00:00;;;;;;;2.00;0.97;;;20.20;91.90;;;;;;5028821;28;20241;-75
2022/01/23 14:02:34;;;;;;;3.47;1.20;;;20.30;91.30;;;;;;5032474;28;20219;-76
2022/01/23 14:05:17;;;;;;;4.20;1.10;;;20.30;90.90;;;;;;5032282;28;20663;-76
2022/01/23 14:07:53;;;;;;;2.83;1.03;;;20.30;90.40;;;;;;5030576;28;20197;-75
2022/01/23 14:10:24;;;;;;;2.20;1.10;;;20.30;90.30;;;;;;5032116;28;20180;-75
2022/01/23 14:12:53;;;;;;;5.00;1.10;;;20.40;90.70;;;;;;5031307;28;20243;-76
2022/01/23 14:15:30;;;;;;;1.07;0.80;;;20.30;90.80;;;;;;5031492;28;20230;-74
2022/01/23 14:18:10;;;;;;;1.50;0.93;;;20.30;90.70;;;;;;5032089;28;20238;-75
2022/01/23 14:20:57;;;;;;;1.80;0.97;;;20.40;90.80;;;;;;5047989;28;20701;-75
2022/01/23 14:23:25;;;;;;;1.70;0.80;;;20.40;90.70;;;;;;5036063;28;20222;-74
2022/01/23 14:25:56;;;;;;;2.07;1.00;;;20.40;90.50;;;;;;5033430;28;20199;-74
2022/01/23 14:28:28;;;;;;;2.93;0.93;;;20.30;90.60;;;;;;5035883;28;20180;-74
2022/01/23 14:31:01;;;;;;;2.03;0.83;;;20.30;91.00;;;;;;5031915;28;20181;-75
2022/01/23 14:33:34;;;;;;;3.13;1.10;;;20.30;90.80;;;;;;5035143;28;20180;-75
2022/01/23 14:36:18;;;;;;;1.77;0.90;;;20.20;91.20;;;;;;5034929;28;20643;-75
2022/01/23 14:39:08;;;;;;;2.23;1.10;;;20.20;91.80;;;;;;5033806;28;20184;-74
2022/01/23 14:41:41;;;;;;;3.47;1.10;;;20.10;92.30;;;;;;5036031;28;20196;-75
2022/01/23 14:44:23;;;;;;;2.47;1.50;;;20.10;92.50;;;;;;5037828;28;20189;-74
2022/01/23 14:46:53;;;;;;;4.70;1.30;;;20.10;92.20;;;;;;5036378;28;20175;-75
2022/01/23 14:49:24;;;;;;;2.60;0.80;;;20.10;92.20;;;;;;5035836;28;20179;-74
2022/01/23 14:51:55;;;;;;;4.33;1.27;;;20.10;92.60;;;;;;5039362;28;20176;-74
2022/01/23 14:54:25;;;;;;;4.87;1.00;;;20.10;92.70;;;;;;5039805;28;20215;-75
2022/01/23 14:56:57;;;;;;;3.80;1.20;;;20.00;92.40;;;;;;5039282;28;20186;-74
2022/01/23 14:59:25;;;;;;;4.87;1.20;;;20.00;92.30;;;;;;5034358;28;20238;-74
2022/01/23 15:01:54;;;;;;;4.87;1.33;;;20.00;92.40;;;;;;5030677;28;20720;-74
2022/01/23 15:04:23;;;;;;;2.73;1.13;;;20.00;92.50;;;;;;5035600;28;20188;-75
2022/01/23 15:06:54;;;;;;;4.50;1.33;;;20.00;92.50;;;;;;5034530;28;20235;-74
2022/01/23 15:09:23;;;;;;;2.43;0.90;;;20.00;92.30;;;;;;5034266;28;20185;-75
2022/01/23 15:11:51;;;;;;;2.73;1.10;;;20.00;92.30;;;;;;5033478;28;20546;-74
2022/01/23 15:14:19;;;;;;;3.00;1.00;;;20.00;92.40;;;;;;5035335;28;20185;-75
2022/01/23 15:16:48;;;;;;;5.27;1.30;;;20.00;92.40;;;;;;5035155;28;20279;-75
2022/01/23 15:19:16;;;;;;;3.20;1.00;;;20.00;92.30;;;;;;5033241;28;20188;-76
2022/01/23 15:21:43;;;;;;;3.57;0.90;;;20.00;92.30;;;;;;5034978;28;20224;-75
2022/01/23 15:24:11;;;;;;;2.80;1.00;;;20.00;92.20;;;;;;5035462;28;20188;-76
2022/01/23 15:26:40;;;;;;;7.50;1.40;;;20.00;92.10;;;;;;5035371;28;20548;-75
2022/01/23 15:29:08;;;;;;;3.13;0.93;;;19.90;92.40;;;;;;5032934;28;20180;-76
2022/01/23 15:31:38;;;;;;;3.10;0.90;;;19.90;92.20;;;;;;5034348;28;20624;-75
2022/01/23 15:34:05;;;;;;;1.87;1.03;;;19.90;92.50;;;;;;5032458;28;20321;-74
2022/01/23 15:36:33;;;;;;;3.80;0.97;;;19.90;92.50;;;;;;5035301;28;20192;-74
2022/01/23 15:39:01;;;;;;;4.67;1.10;;;20.00;92.60;;;;;;5034459;28;20216;-73
2022/01/23 15:41:29;;;;;;;4.10;0.73;;;20.00;92.60;;;;;;5035009;28;20223;-73
2022/01/23 15:43:56;;;;;;;4.70;1.20;;;19.90;92.60;;;;;;5033806;28;20215;-74
2022/01/23 15:46:24;;;;;;;2.37;1.10;;;19.90;92.80;;;;;;5034874;28;20168;-73
2022/01/23 15:48:51;;;;;;;3.50;1.30;;;20.00;93.40;;;;;;5034246;28;20654;-73
2022/01/23 15:51:18;;;;;;;2.37;1.10;;;19.90;93.30;;;;;;5034681;28;20234;-74
2022/01/23 15:53:46;;;;;;;5.17;1.57;;;19.80;93.00;;;;;;5034248;28;20226;-74
2022/01/23 15:56:13;;;;;;;4.27;1.10;;;19.80;93.30;;;;;;5034898;28;20582;-74
2022/01/23 15:58:40;;;;;;;6.17;1.20;;;19.80;93.10;;;;;;5033811;28;20659;-75
2022/01/23 16:01:08;;;;;;;4.07;1.13;;;19.80;93.10;;;;;;5033368;28;20276;-74
2022/01/23 16:03:35;;;;;;;3.83;1.00;;;19.80;93.30;;;;;;5033966;28;20205;-74
2022/01/23 16:06:02;;;;;;;4.73;1.13;;;19.80;93.50;;;;;;5035249;28;20689;-74
2022/01/23 16:08:30;;;;;;;4.97;1.00;;;19.80;93.80;;;;;;5034467;28;20216;-74
2022/01/23 16:10:59;;;;;;;4.93;1.10;;;19.80;93.50;;;;;;5034270;28;20180;-75
2022/01/23 16:13:29;;;;;;;3.30;0.90;;;19.80;93.40;;;;;;5033761;28;20192;-74
2022/01/23 16:15:56;;;;;;;1.93;0.80;;;19.70;93.10;;;;;;5034081;28;20718;-74
2022/01/23 16:18:24;;;;;;;2.90;1.30;;;19.60;93.30;;;;;;5033805;28;20188;-74
2022/01/23 16:20:52;;;;;;;5.23;1.07;;;19.60;93.40;;;;;;5033718;28;20172;-74
2022/01/23 16:23:20;;;;;;;3.33;1.00;;;19.60;93.40;;;;;;5034179;28;20208;-74
2022/01/23 16:25:47;;;;;;;2.47;0.80;;;19.70;93.60;;;;;;5033746;28;20180;-74
2022/01/23 16:28:14;;;;;;;1.53;0.90;;;19.70;93.70;;;;;;5032375;28;20181;-74
2022/01/23 16:30:53;;;;;;;4.87;1.00;;;19.70;93.60;;;;;;5030059;28;20184;-74
2022/01/23 16:33:23;;;;;;;6.60;1.27;;;19.80;93.60;;;;;;5043202;28;20187;-74
2022/01/23 16:35:51;;;;;;;6.50;1.20;;;19.80;93.70;;;;;;5034344;28;20177;-74
2022/01/23 16:38:19;;;;;;;1.47;0.93;;;19.80;93.60;;;;;;5033312;28;20588;-74
2022/01/23 16:40:54;;;;;;;2.50;1.10;;;19.70;93.40;;;;;;5033493;28;20232;-74
2022/01/23 16:43:23;;;;;;;5.53;1.17;;;19.70;93.40;;;;;;5028779;28;20318;-74
2022/01/23 16:45:52;;;;;;;4.80;1.03;;;19.70;93.60;;;;;;5032932;28;20578;-74
2022/01/23 16:48:21;;;;;;;2.60;0.80;;;19.70;93.60;;;;;;5033555;28;20196;-74